In Rescue
 
Open Full Screen Window  High Contrast Mode
Wind Gusting 00 knots
09
October 03, 2023 10:43 PM CDT
Weather Information
Wind Direction
  140 °
Wind Speed
  09 kt (10 mph)
Wind Gust
  00 kt (0 mph)
Altimeter
29.75 in
Visibility
10 SM
Temperature
20° C
68° F
Dewpoint
17° C
63° F
Humidity
83%
Sky Condition
Broken @ 9,500 ft
VFR

METAR KFBL 040343Z AUTO 14009KT 10SM BKN095 20/17 A2975 RMK AO2 LTG DSNT SW THRU NW

FAA Disclaimer: The data displayed is for advisory purposes only and is not to be used for flight planning or operations.